createdAt,value
2019-01-30T00:01:28.972Z,13.43
2019-01-30T00:03:57.748Z,14.60
2019-01-30T00:06:26.332Z,13.00
2019-01-30T00:08:55.184Z,13.57
2019-01-30T00:11:23.724Z,12.67
2019-01-30T00:13:52.211Z,14.10
2019-01-30T00:16:22.740Z,13.37
2019-01-30T00:18:51.221Z,14.60
2019-01-30T00:21:24.498Z,15.18
2019-01-30T00:23:53.256Z,13.83
2019-01-30T00:26:21.756Z,13.97
2019-01-30T00:28:50.300Z,13.63
2019-01-30T00:31:18.916Z,14.73
2019-01-30T00:33:47.868Z,13.90
2019-01-30T00:36:16.428Z,13.10
2019-01-30T00:38:45.297Z,13.90
2019-01-30T00:41:14.089Z,14.03
2019-01-30T00:43:42.924Z,14.40
2019-01-30T00:46:11.480Z,14.60
2019-01-30T00:48:40.549Z,15.13
2019-01-30T00:51:09.318Z,14.30
2019-01-30T00:53:38.000Z,13.17
2019-01-30T00:56:06.488Z,13.97
2019-01-30T00:58:34.990Z,13.80
2019-01-30T01:01:03.681Z,12.90
2019-01-30T01:03:32.648Z,14.83
2019-01-30T01:06:01.429Z,13.63
2019-01-30T01:08:29.969Z,13.70
2019-01-30T01:10:59.032Z,12.53
2019-01-30T01:13:27.537Z,14.20
2019-01-30T01:15:56.200Z,13.50
2019-01-30T01:18:25.133Z,14.07
2019-01-30T01:20:53.880Z,13.70
2019-01-30T01:23:22.396Z,13.77
2019-01-30T01:25:50.952Z,12.83
2019-01-30T01:28:19.416Z,11.93
2019-01-30T01:30:48.040Z,12.60
2019-01-30T01:33:16.598Z,12.30
2019-01-30T01:35:45.088Z,12.97
2019-01-30T01:38:14.284Z,12.70
2019-01-30T01:40:43.168Z,12.47
2019-01-30T01:43:11.671Z,12.63
2019-01-30T01:45:40.508Z,12.90
2019-01-30T01:48:08.983Z,13.57
2019-01-30T01:50:37.516Z,13.97
2019-01-30T01:53:06.093Z,13.90
2019-01-30T01:55:34.636Z,14.40
2019-01-30T01:58:03.186Z,13.37
2019-01-30T02:00:35.573Z,15.00
2019-01-30T02:03:00.258Z,14.17
2019-01-30T02:05:28.864Z,14.40
2019-01-30T02:07:57.436Z,14.27
2019-01-30T02:10:26.019Z,14.40
2019-01-30T02:12:54.522Z,15.17
2019-01-30T02:15:23.551Z,15.20
2019-01-30T02:17:52.123Z,13.97
2019-01-30T02:20:23.153Z,13.40
2019-01-30T02:22:51.683Z,15.30
2019-01-30T02:25:20.165Z,14.80
2019-01-30T02:27:48.691Z,14.83
2019-01-30T02:30:19.861Z,15.80
2019-01-30T02:32:48.379Z,13.60
2019-01-30T02:35:16.972Z,12.97
2019-01-30T02:37:45.768Z,14.53
2019-01-30T02:40:15.861Z,15.07
2019-01-30T02:42:44.384Z,14.50
2019-01-30T02:45:15.027Z,14.50
2019-01-30T02:47:43.491Z,15.67
2019-01-30T02:50:14.103Z,14.47
2019-01-30T02:52:43.183Z,14.07
2019-01-30T02:55:12.995Z,14.90
2019-01-30T02:57:41.615Z,13.87
2019-01-30T03:00:14.735Z,15.77
2019-01-30T03:02:43.331Z,14.30
2019-01-30T03:05:12.131Z,14.03
2019-01-30T03:07:40.656Z,15.67
2019-01-30T03:10:11.848Z,15.47
2019-01-30T03:12:40.427Z,14.60
2019-01-30T03:15:10.968Z,16.00
2019-01-30T03:17:39.507Z,14.83
2019-01-30T03:20:10.899Z,15.23
2019-01-30T03:22:40.719Z,14.83
2019-01-30T03:25:10.507Z,13.87
2019-01-30T03:27:39.469Z,15.17
2019-01-30T03:30:12.278Z,15.47
2019-01-30T03:32:40.781Z,16.50
2019-01-30T03:35:09.322Z,15.20
2019-01-30T03:37:38.151Z,14.77
2019-01-30T03:40:08.264Z,15.67
2019-01-30T03:42:36.813Z,14.73
2019-01-30T03:45:06.141Z,15.40
2019-01-30T03:47:35.039Z,15.27
2019-01-30T03:50:03.587Z,16.23
2019-01-30T03:52:32.355Z,16.17
2019-01-30T03:55:00.968Z,16.43
2019-01-30T03:57:29.459Z,15.17
2019-01-30T03:59:58.167Z,16.07
2019-01-30T04:02:26.803Z,16.03
2019-01-30T04:04:55.279Z,15.23
2019-01-30T04:07:23.767Z,16.23
2019-01-30T04:09:53.002Z,16.17
2019-01-30T04:12:21.982Z,15.97
2019-01-30T04:14:50.491Z,16.80
2019-01-30T04:17:19.001Z,17.20
2019-01-30T04:19:47.612Z,16.77
2019-01-30T04:22:16.086Z,17.87
2019-01-30T04:24:44.927Z,17.33
2019-01-30T04:27:13.846Z,15.77
2019-01-30T04:29:42.322Z,16.87
2019-01-30T04:32:11.170Z,18.07
2019-01-30T04:34:39.707Z,17.97
2019-01-30T04:37:08.195Z,17.83
2019-01-30T04:39:36.726Z,17.30
2019-01-30T04:42:05.627Z,16.27
2019-01-30T04:44:34.106Z,17.10
2019-01-30T04:47:02.990Z,15.83
2019-01-30T04:49:31.794Z,17.73
2019-01-30T04:52:00.386Z,16.40
2019-01-30T04:54:29.164Z,17.27
2019-01-30T04:56:57.803Z,17.03
2019-01-30T04:59:26.378Z,18.83
2019-01-30T05:01:54.854Z,19.43
2019-01-30T05:04:23.738Z,18.33
2019-01-30T05:06:52.350Z,18.17
2019-01-30T05:09:21.284Z,18.70
2019-01-30T05:11:49.835Z,17.93
2019-01-30T05:14:18.338Z,20.40
2019-01-30T05:16:46.811Z,18.57
2019-01-30T05:19:15.631Z,18.73
2019-01-30T05:21:44.150Z,17.07
2019-01-30T05:24:12.812Z,16.57
2019-01-30T05:26:41.334Z,17.03
2019-01-30T05:29:10.250Z,16.83
2019-01-30T05:31:38.750Z,16.63
2019-01-30T05:34:07.333Z,16.90
2019-01-30T05:36:35.902Z,18.63
2019-01-30T05:39:06.478Z,19.60
2019-01-30T05:41:35.057Z,18.47
2019-01-30T05:44:04.458Z,17.57
2019-01-30T05:46:32.926Z,17.13
2019-01-30T05:49:01.377Z,18.87
2019-01-30T05:51:29.887Z,17.70
2019-01-30T05:53:58.445Z,18.70
2019-01-30T05:56:26.923Z,17.73
2019-01-30T05:58:55.913Z,18.33
2019-01-30T06:01:24.393Z,19.00
2019-01-30T06:03:52.923Z,18.70
2019-01-30T06:06:21.787Z,18.70
2019-01-30T06:08:50.273Z,16.20
2019-01-30T06:11:19.318Z,18.00
2019-01-30T06:13:47.833Z,16.80
2019-01-30T06:16:16.441Z,19.33
2019-01-30T06:18:45.005Z,19.17
2019-01-30T06:21:13.488Z,20.33
2019-01-30T06:23:42.178Z,19.97
2019-01-30T06:26:10.670Z,19.50
2019-01-30T06:28:39.226Z,20.30
2019-01-30T06:31:07.809Z,21.23
2019-01-30T06:33:36.386Z,21.13
2019-01-30T06:36:04.949Z,20.87
2019-01-30T06:38:33.461Z,20.20
2019-01-30T06:41:01.993Z,20.40
2019-01-30T06:43:30.489Z,20.43
2019-01-30T06:45:59.133Z,19.90
2019-01-30T06:48:27.678Z,21.23
2019-01-30T06:50:56.229Z,19.87
2019-01-30T06:53:25.509Z,20.87
2019-01-30T06:55:53.973Z,20.67
2019-01-30T06:58:22.517Z,20.50
2019-01-30T07:00:52.708Z,20.17
2019-01-30T07:03:19.569Z,21.13
2019-01-30T07:05:48.069Z,23.27
2019-01-30T07:08:17.021Z,22.90
2019-01-30T07:10:45.505Z,22.20
2019-01-30T07:13:14.333Z,23.63
2019-01-30T07:15:42.953Z,25.17
2019-01-30T07:18:11.581Z,25.17
2019-01-30T07:20:40.065Z,26.80
2019-01-30T07:23:08.605Z,27.37
2019-01-30T07:25:37.210Z,26.50
2019-01-30T07:28:05.745Z,30.13
2019-01-30T07:30:35.804Z,31.10
2019-01-30T07:33:05.125Z,26.93
2019-01-30T07:35:33.637Z,25.60
2019-01-30T07:38:02.797Z,23.47
2019-01-30T07:40:31.299Z,22.73
2019-01-30T07:42:59.812Z,21.23
2019-01-30T07:45:29.204Z,23.17
2019-01-30T07:47:58.250Z,22.63
2019-01-30T07:50:26.849Z,23.33
2019-01-30T07:52:58.683Z,21.10
2019-01-30T07:55:24.589Z,20.50
2019-01-30T07:57:53.169Z,18.93
2019-01-30T08:00:24.173Z,19.83
2019-01-30T08:02:53.801Z,20.90
2019-01-30T08:05:22.791Z,21.33
2019-01-30T08:07:50.716Z,21.60
2019-01-30T08:10:19.672Z,23.93
2019-01-30T08:12:48.201Z,23.50
2019-01-30T08:15:17.592Z,24.97
2019-01-30T08:17:46.626Z,25.80
2019-01-30T08:20:17.212Z,25.73
2019-01-30T08:22:45.792Z,25.30
2019-01-30T08:25:16.406Z,24.13
2019-01-30T08:27:44.883Z,22.07
2019-01-30T08:30:22.527Z,22.93
2019-01-30T08:32:47.093Z,21.50
2019-01-30T08:35:15.836Z,21.07
2019-01-30T08:37:45.994Z,19.23
2019-01-30T08:40:13.004Z,20.52
2019-01-30T08:42:41.736Z,19.63
2019-01-30T08:45:15.016Z,20.73
2019-01-30T08:47:43.904Z,19.77
2019-01-30T08:50:12.552Z,18.57
2019-01-30T08:52:41.096Z,19.80
2019-01-30T08:55:10.045Z,17.93
2019-01-30T08:57:38.608Z,15.77
2019-01-30T09:00:09.953Z,15.97
2019-01-30T09:02:38.440Z,15.07
2019-01-30T09:05:08.008Z,16.27
2019-01-30T09:07:43.894Z,15.57
2019-01-30T09:10:07.416Z,16.53
2019-01-30T09:12:35.925Z,14.80
2019-01-30T09:15:05.417Z,14.00
2019-01-30T09:17:33.972Z,15.10
2019-01-30T09:20:02.740Z,15.13
2019-01-30T09:22:31.770Z,15.40
2019-01-30T09:25:00.596Z,16.47
2019-01-30T09:27:29.060Z,15.47
2019-01-30T09:29:58.223Z,14.60
2019-01-30T09:32:26.740Z,16.13
2019-01-30T09:34:55.228Z,15.27
2019-01-30T09:37:23.797Z,15.70
2019-01-30T09:39:52.374Z,14.75
2019-01-30T09:42:20.899Z,15.40
2019-01-30T09:44:49.416Z,14.90
2019-01-30T09:47:17.900Z,14.77
2019-01-30T09:49:46.389Z,14.40
2019-01-30T09:52:14.908Z,15.25
2019-01-30T09:54:43.444Z,15.60
2019-01-30T09:57:11.967Z,14.25
2019-01-30T09:59:40.507Z,14.03
2019-01-30T10:02:09.011Z,14.72
2019-01-30T10:04:37.859Z,13.50
2019-01-30T10:07:06.492Z,16.02
2019-01-30T10:09:37.450Z,15.90
2019-01-30T10:12:03.831Z,14.87
2019-01-30T10:14:32.808Z,14.15
2019-01-30T10:17:01.719Z,14.18
2019-01-30T10:19:30.239Z,15.18
2019-01-30T10:21:59.023Z,15.03
2019-01-30T10:24:29.085Z,16.12
2019-01-30T10:27:00.503Z,14.33
2019-01-30T10:29:29.044Z,15.83
2019-01-30T10:31:57.543Z,16.35
2019-01-30T10:34:26.139Z,15.72
2019-01-30T10:36:54.669Z,15.88
2019-01-30T10:39:23.233Z,14.57
2019-01-30T10:41:51.895Z,15.93
2019-01-30T10:44:20.484Z,16.42
2019-01-30T10:46:48.987Z,18.50
2019-01-30T10:49:17.551Z,17.05
2019-01-30T10:51:46.068Z,18.60
2019-01-30T10:54:14.643Z,16.53
2019-01-30T10:56:43.216Z,18.20
2019-01-30T10:59:12.059Z,17.10
2019-01-30T11:01:40.627Z,16.97
2019-01-30T11:04:09.214Z,18.40
2019-01-30T11:06:38.411Z,14.17
2019-01-30T11:09:09.544Z,13.67
2019-01-30T11:11:38.171Z,15.97
2019-01-30T11:14:06.730Z,16.50
2019-01-30T11:16:35.274Z,16.57
2019-01-30T11:19:03.842Z,17.20
2019-01-30T11:21:32.331Z,17.03
2019-01-30T11:24:00.862Z,17.37
2019-01-30T11:26:29.427Z,15.07
2019-01-30T11:28:57.951Z,15.27
2019-01-30T11:31:26.919Z,15.98
2019-01-30T11:33:55.430Z,15.78
2019-01-30T11:36:24.287Z,17.05
2019-01-30T11:38:53.202Z,17.50
2019-01-30T11:41:21.646Z,17.53
2019-01-30T11:43:50.114Z,15.15
2019-01-30T11:46:18.654Z,17.12
2019-01-30T11:48:56.197Z,16.10
2019-01-30T11:51:17.017Z,17.48
2019-01-30T11:53:45.909Z,15.43
2019-01-30T11:56:14.497Z,18.00
2019-01-30T11:58:42.983Z,16.20
2019-01-30T12:01:11.617Z,16.17
2019-01-30T12:03:40.118Z,16.07
2019-01-30T12:06:08.646Z,18.77
2019-01-30T12:08:37.330Z,15.40
2019-01-30T12:12:08.493Z,15.72
2019-01-30T12:14:37.021Z,16.97
2019-01-30T12:17:05.857Z,15.23
2019-01-30T12:19:34.357Z,15.20
2019-01-30T12:22:03.209Z,13.03
2019-01-30T12:24:32.027Z,13.72
2019-01-30T12:27:00.652Z,13.28
2019-01-30T12:29:29.206Z,13.70
2019-01-30T12:31:58.146Z,14.95
2019-01-30T12:34:28.238Z,14.70
2019-01-30T12:36:56.578Z,15.63
2019-01-30T12:39:25.081Z,15.88
2019-01-30T12:41:53.617Z,15.98
2019-01-30T12:44:22.161Z,11.10
2019-01-30T12:46:50.698Z,10.70
2019-01-30T12:49:19.195Z,10.60
2019-01-30T12:51:48.031Z,10.68
2019-01-30T12:54:16.787Z,9.63
2019-01-30T12:56:45.386Z,11.50
2019-01-30T12:59:14.237Z,10.55
2019-01-30T13:01:42.849Z,10.32
2019-01-30T13:04:11.689Z,10.30
2019-01-30T13:06:40.469Z,14.15
2019-01-30T13:09:10.161Z,13.28
2019-01-30T13:11:38.653Z,12.90
2019-01-30T13:14:07.293Z,12.78
2019-01-30T13:16:36.513Z,14.05
2019-01-30T13:19:05.156Z,17.48
2019-01-30T13:21:33.678Z,17.80
2019-01-30T13:24:02.244Z,16.37
2019-01-30T13:26:31.481Z,18.42
2019-01-30T13:29:00.637Z,17.02
2019-01-30T13:31:29.257Z,16.90
2019-01-30T13:33:57.765Z,15.90
2019-01-30T13:36:26.953Z,15.00
2019-01-30T13:38:56.136Z,14.50
2019-01-30T13:41:24.945Z,13.57
2019-01-30T13:43:53.446Z,13.38
2019-01-30T13:46:21.973Z,13.00
2019-01-30T13:48:50.592Z,14.43
2019-01-30T13:51:19.088Z,14.40
2019-01-30T13:53:47.808Z,13.30
2019-01-30T13:56:16.408Z,14.63
2019-01-30T13:58:45.218Z,14.30
2019-01-30T14:01:17.587Z,16.20
2019-01-30T14:03:42.306Z,15.25
2019-01-30T14:06:10.838Z,15.90
2019-01-30T14:08:40.105Z,14.18
2019-01-30T14:11:08.904Z,15.72
2019-01-30T14:13:37.858Z,17.92
2019-01-30T14:16:06.573Z,16.10
2019-01-30T14:18:35.133Z,15.45
2019-01-30T14:21:04.724Z,17.90
2019-01-30T14:23:33.272Z,15.98
2019-01-30T14:26:01.801Z,15.30
2019-01-30T14:28:30.315Z,14.00
2019-01-30T14:30:58.817Z,17.12
2019-01-30T14:33:28.005Z,15.68
2019-01-30T14:35:56.848Z,17.55
2019-01-30T14:38:25.364Z,16.45
2019-01-30T14:40:53.900Z,20.20
2019-01-30T14:43:22.387Z,19.12
2019-01-30T14:45:50.944Z,22.02
2019-01-30T14:48:20.062Z,19.12
2019-01-30T14:50:48.631Z,19.83
2019-01-30T14:53:17.201Z,18.50
2019-01-30T14:55:45.860Z,19.35
2019-01-30T14:58:14.470Z,21.33
2019-01-30T15:00:42.992Z,22.73
2019-01-30T15:03:11.551Z,24.03
2019-01-30T15:05:40.241Z,25.72
2019-01-30T15:08:08.858Z,22.30
2019-01-30T15:10:37.930Z,20.92
2019-01-30T15:13:07.262Z,22.03
2019-01-30T15:15:35.886Z,23.30
2019-01-30T15:18:05.012Z,24.17
2019-01-30T15:20:35.440Z,23.23
2019-01-30T15:23:05.572Z,21.80
2019-01-30T15:25:35.400Z,22.43
2019-01-30T15:28:05.514Z,22.67
2019-01-30T15:30:36.772Z,22.43
2019-01-30T15:33:05.844Z,23.00
2019-01-30T15:35:34.473Z,23.60
2019-01-30T15:38:05.301Z,23.53
2019-01-30T15:40:33.916Z,23.03
2019-01-30T15:43:02.443Z,22.30
2019-01-30T15:45:31.120Z,23.70
2019-01-30T15:47:59.710Z,22.37
2019-01-30T15:50:29.992Z,20.17
2019-01-30T15:52:59.933Z,20.17
2019-01-30T15:55:29.576Z,20.33
2019-01-30T15:58:00.592Z,22.07
2019-01-30T16:00:32.780Z,23.03
2019-01-30T16:03:01.321Z,23.40
2019-01-30T16:05:30.132Z,23.03
2019-01-30T16:07:59.346Z,22.67
2019-01-30T16:10:27.884Z,21.20
2019-01-30T16:12:56.394Z,21.80
2019-01-30T16:15:28.932Z,21.10
2019-01-30T16:17:57.456Z,20.10
2019-01-30T16:20:26.137Z,19.93
2019-01-30T16:22:54.620Z,20.07
2019-01-30T16:25:23.412Z,18.53
2019-01-30T16:27:52.008Z,18.77
2019-01-30T16:30:21.704Z,19.43
2019-01-30T16:32:50.609Z,18.73
2019-01-30T16:35:22.472Z,17.03
2019-01-30T16:37:50.988Z,16.00
2019-01-30T16:40:19.628Z,14.00
2019-01-30T16:42:48.640Z,15.30
2019-01-30T16:45:18.988Z,15.75
2019-01-30T16:47:47.925Z,15.57
2019-01-30T16:50:16.796Z,16.67
2019-01-30T16:52:45.388Z,15.70
2019-01-30T16:55:14.896Z,15.70
2019-01-30T16:57:43.547Z,16.93
2019-01-30T17:00:17.564Z,15.03
2019-01-30T17:02:46.085Z,16.67
2019-01-30T17:05:15.130Z,16.77
2019-01-30T17:07:43.704Z,19.63
2019-01-30T17:10:12.604Z,18.53
2019-01-30T17:12:41.119Z,17.70
2019-01-30T17:15:12.484Z,17.63
2019-01-30T17:17:41.191Z,16.47
2019-01-30T17:20:13.760Z,16.27
2019-01-30T17:22:42.271Z,16.47
2019-01-30T17:25:10.911Z,14.70
2019-01-30T17:28:09.864Z,15.47
2019-01-30T17:30:48.287Z,14.90
2019-01-30T17:33:17.115Z,14.80
2019-01-30T17:35:45.647Z,14.83
2019-01-30T17:38:14.231Z,14.17
2019-01-30T17:40:43.550Z,14.37
2019-01-30T17:43:12.107Z,13.60
2019-01-30T17:45:40.683Z,14.30
2019-01-30T17:48:10.540Z,13.80
2019-01-30T17:50:39.035Z,14.40
2019-01-30T17:53:08.198Z,13.53
2019-01-30T17:55:36.775Z,13.13
2019-01-30T17:58:05.384Z,13.70
2019-01-30T18:00:40.455Z,13.07
2019-01-30T18:05:54.893Z,13.90
2019-01-30T18:08:23.514Z,12.70
2019-01-30T18:10:52.569Z,12.53
2019-01-30T18:13:21.096Z,11.43
2019-01-30T18:15:49.879Z,11.93
2019-01-30T18:18:18.974Z,10.73
2019-01-30T18:20:47.666Z,15.50
2019-01-30T18:23:16.450Z,14.33
2019-01-30T18:25:44.938Z,16.80
2019-01-30T18:28:14.040Z,12.77
2019-01-30T18:30:42.672Z,13.57
2019-01-30T18:33:11.164Z,12.63
2019-01-30T18:35:39.716Z,13.17
2019-01-30T18:38:08.365Z,13.30
2019-01-30T18:40:36.886Z,12.40
2019-01-30T18:43:05.394Z,13.67
2019-01-30T18:45:33.885Z,13.80
2019-01-30T18:48:02.389Z,15.73
2019-01-30T18:50:31.017Z,18.37
2019-01-30T18:52:59.561Z,16.47
2019-01-30T18:55:30.927Z,18.53
2019-01-30T18:57:57.418Z,17.47
2019-01-30T19:00:29.717Z,17.20
2019-01-30T19:02:59.789Z,16.20
2019-01-30T19:05:29.100Z,17.40
2019-01-30T19:07:57.658Z,18.03
2019-01-30T19:10:27.720Z,20.83
2019-01-30T19:12:56.683Z,20.00
2019-01-30T19:15:25.818Z,19.07
2019-01-30T19:17:54.377Z,18.77
2019-01-30T19:20:25.325Z,23.67
2019-01-30T19:22:53.865Z,22.07
2019-01-30T19:25:22.648Z,22.20
2019-01-30T19:27:51.282Z,24.43
2019-01-30T19:30:22.173Z,22.07
2019-01-30T19:32:51.569Z,21.63
2019-01-30T19:35:20.225Z,21.75
2019-01-30T19:37:48.849Z,22.53
2019-01-30T19:40:17.466Z,20.88
2019-01-30T19:42:45.989Z,19.27
2019-01-30T19:45:15.856Z,20.30
2019-01-30T19:47:46.117Z,21.17
2019-01-30T19:50:21.033Z,20.97
2019-01-30T19:52:49.550Z,18.63
2019-01-30T19:55:18.152Z,19.40
2019-01-30T19:57:47.246Z,19.53
2019-01-30T20:00:21.476Z,21.57
2019-01-30T20:02:50.356Z,21.20
2019-01-30T20:05:18.944Z,20.60
2019-01-30T20:07:47.547Z,19.30
2019-01-30T20:10:18.925Z,20.37
2019-01-30T20:12:47.520Z,20.13
2019-01-30T20:15:16.820Z,22.33
2019-01-30T20:17:45.401Z,20.37
2019-01-30T20:20:14.700Z,20.97
2019-01-30T20:22:43.252Z,20.43
2019-01-30T20:25:15.904Z,21.60
2019-01-30T20:28:13.425Z,20.87
2019-01-30T20:30:42.432Z,20.13
2019-01-30T20:33:11.197Z,20.80
2019-01-30T20:35:39.720Z,22.87
2019-01-30T20:38:08.240Z,21.67
2019-01-30T20:40:36.756Z,19.97
2019-01-30T20:43:05.292Z,20.70
2019-01-30T20:45:34.218Z,20.90
2019-01-30T20:48:02.684Z,20.90
2019-01-30T20:50:38.664Z,20.90
2019-01-30T20:53:07.597Z,21.30
2019-01-30T20:55:36.177Z,20.23
2019-01-30T20:58:05.096Z,21.17
2019-01-30T21:00:36.604Z,22.03
2019-01-30T21:03:05.780Z,21.77
2019-01-30T21:05:34.455Z,20.60
2019-01-30T21:08:03.003Z,21.53
2019-01-30T21:10:35.612Z,21.90
2019-01-30T21:13:05.479Z,21.60
2019-01-30T21:15:33.999Z,20.70
2019-01-30T21:18:02.625Z,21.43
2019-01-30T21:20:32.039Z,21.93
2019-01-30T21:23:08.295Z,23.07
2019-01-30T21:25:38.228Z,20.47
2019-01-30T21:28:07.288Z,22.80
2019-01-30T21:30:36.998Z,21.73
2019-01-30T21:33:05.596Z,23.27
2019-01-30T21:35:34.141Z,21.90
2019-01-30T21:38:02.658Z,22.43
2019-01-30T21:40:33.468Z,21.50
2019-01-30T21:43:02.243Z,22.10
2019-01-30T21:45:30.790Z,22.50
2019-01-30T21:47:59.530Z,23.63
2019-01-30T21:50:28.038Z,23.63
2019-01-30T21:52:56.580Z,21.67
2019-01-30T21:55:25.239Z,22.73
2019-01-30T21:57:53.757Z,22.20
2019-01-30T22:00:24.955Z,23.00
2019-01-30T22:02:53.619Z,22.20
2019-01-30T22:05:22.203Z,21.27
2019-01-30T22:08:00.642Z,23.50
2019-01-30T22:10:22.059Z,22.80
2019-01-30T22:12:50.788Z,22.27
2019-01-30T22:15:19.683Z,24.13
2019-01-30T22:17:48.222Z,21.57
2019-01-30T22:20:18.963Z,19.70
2019-01-30T22:22:47.763Z,23.20
2019-01-30T22:25:20.531Z,22.17
2019-01-30T22:27:46.603Z,21.30
2019-01-30T22:30:17.832Z,24.70
2019-01-30T22:32:46.439Z,23.37
2019-01-30T22:35:15.091Z,22.50
2019-01-30T22:37:43.891Z,21.07
2019-01-30T22:40:12.651Z,23.47
2019-01-30T22:42:41.711Z,21.87
2019-01-30T22:45:11.985Z,23.50
2019-01-30T22:47:40.579Z,23.10
2019-01-30T22:50:10.055Z,23.65
2019-01-30T22:52:38.798Z,23.00
2019-01-30T22:55:09.447Z,24.03
2019-01-30T22:57:38.139Z,22.50
2019-01-30T23:00:52.422Z,23.90
2019-01-30T23:03:26.738Z,23.83
2019-01-30T23:06:06.111Z,23.40
2019-01-30T23:08:45.275Z,24.43
2019-01-30T23:11:29.182Z,22.43
2019-01-30T23:14:03.521Z,22.53
2019-01-30T23:16:52.934Z,26.03
2019-01-30T23:19:34.419Z,24.67
2019-01-30T23:24:14.591Z,23.33
2019-01-30T23:31:55.422Z,25.93
2019-01-30T23:38:22.071Z,23.13
2019-01-30T23:41:34.030Z,23.77
2019-01-30T23:44:15.443Z,23.50
2019-01-30T23:47:12.002Z,23.13
2019-01-30T23:50:08.230Z,22.13
2019-01-30T23:52:47.670Z,21.87
2019-01-30T23:55:56.483Z,22.33
2019-01-30T23:58:38.898Z,23.13
